BAW25C KLAX-EGLL
Flight info
| Callsign | BAW25C |
|---|---|
| Flight time | N/A |
| Altitude | 35000 |
| Route | ORCKA5 LAS DCT BCE DCT KU51Q DCT KD57U DCT DVV DCT OBH DCT ALO DCT BAE DCT DAYYY DCT 46N078W DCT BAREE N581A TUDEP/M081F350 NATT BEXET/N0457F350 DCT BOFUM Q37 MALUD Q38 NUGRA |
| Aircraft | A388/J-SADE2E3FGHIJ3J4J5M1RWXY/LB1D1 |
Departure
| Time | 2026-05-08 00:09 |
|---|---|
| Airport | Los Angeles International Airport (KLAX) |
Arrival
| Time | N/A |
|---|---|
| Airport | London Heathrow Airport (EGLL) |
| Time | Latitude | Longitude | Altitude | Speed | Heading |
|---|---|---|---|---|---|
| 2026-05-07 23:34 | 33.93943 | -118.41063 | 98 ft | 0 kts | 82° |
| 2026-05-07 23:37 | 33.94020 | -118.41080 | 98 ft | 0 kts | 83° |
| 2026-05-07 23:54 | 33.94019 | -118.41095 | 97 ft | 4 kts | 83° |
| 2026-05-07 23:54 | 33.94015 | -118.41127 | 97 ft | 4 kts | 82° |
| 2026-05-07 23:54 | 33.94013 | -118.41159 | 98 ft | 4 kts | 79° |
| 2026-05-07 23:54 | 33.94002 | -118.41179 | 98 ft | 4 kts | 6° |
| 2026-05-07 23:55 | 33.93975 | -118.41178 | 98 ft | 3 kts | 353° |
| 2026-05-07 23:55 | 33.93971 | -118.41177 | 98 ft | 0 kts | 353° |
| 2026-05-08 00:02 | 33.93972 | -118.41177 | 101 ft | 0 kts | 355° |
| 2026-05-08 00:02 | 33.93989 | -118.41179 | 100 ft | 13 kts | 353° |
| 2026-05-08 00:02 | 33.94118 | -118.41197 | 100 ft | 21 kts | 352° |
| 2026-05-08 00:02 | 33.94258 | -118.41219 | 100 ft | 20 kts | 352° |
| 2026-05-08 00:03 | 33.94395 | -118.41241 | 100 ft | 20 kts | 354° |
| 2026-05-08 00:03 | 33.94529 | -118.41260 | 101 ft | 19 kts | 352° |
| 2026-05-08 00:03 | 33.94657 | -118.41280 | 97 ft | 18 kts | 353° |
| 2026-05-08 00:03 | 33.94754 | -118.41293 | 101 ft | 12 kts | 7° |
| 2026-05-08 00:04 | 33.94797 | -118.41236 | 102 ft | 10 kts | 68° |
| 2026-05-08 00:04 | 33.94812 | -118.41097 | 100 ft | 20 kts | 82° |
| 2026-05-08 00:04 | 33.94829 | -118.40927 | 102 ft | 21 kts | 83° |
| 2026-05-08 00:04 | 33.94847 | -118.40746 | 101 ft | 22 kts | 83° |
| 2026-05-08 00:05 | 33.94867 | -118.40557 | 100 ft | 23 kts | 82° |
| 2026-05-08 00:05 | 33.94889 | -118.40365 | 102 ft | 23 kts | 82° |
| 2026-05-08 00:05 | 33.94904 | -118.40197 | 102 ft | 11 kts | 85° |
| 2026-05-08 00:05 | 33.94913 | -118.40090 | 99 ft | 15 kts | 83° |
| 2026-05-08 00:06 | 33.94926 | -118.39976 | 98 ft | 9 kts | 70° |
| 2026-05-08 00:06 | 33.94937 | -118.39951 | 97 ft | 0 kts | 53° |
| 2026-05-08 00:07 | 33.94938 | -118.39949 | 98 ft | 1 kts | 53° |
| 2026-05-08 00:07 | 33.94955 | -118.39929 | 98 ft | 11 kts | 35° |
| 2026-05-08 00:07 | 33.95015 | -118.39922 | 98 ft | 8 kts | 349° |
| 2026-05-08 00:07 | 33.95052 | -118.39953 | 98 ft | 6 kts | 294° |
| 2026-05-08 00:08 | 33.95052 | -118.40018 | 100 ft | 0 kts | 255° |
| 2026-05-08 00:08 | 33.95051 | -118.40020 | 98 ft | 3 kts | 254° |
| 2026-05-08 00:08 | 33.95011 | -118.40256 | 103 ft | 66 kts | 263° |
| 2026-05-08 00:08 | 33.94925 | -118.41096 | 102 ft | 134 kts | 263° |
| 2026-05-08 00:09 | 33.94794 | -118.42398 | 110 ft | 174 kts | 263° |
| 2026-05-08 00:09 | 33.94657 | -118.43827 | 658 ft | 168 kts | 259° |
| 2026-05-08 00:09 | 33.94367 | -118.45236 | 1060 ft | 181 kts | 251° |
| 2026-05-08 00:09 | 33.93958 | -118.46712 | 1453 ft | 189 kts | 249° |
| 2026-05-08 00:10 | 33.93506 | -118.48181 | 1903 ft | 185 kts | 248° |
| 2026-05-08 00:10 | 33.93038 | -118.49647 | 2126 ft | 190 kts | 251° |
| 2026-05-08 00:10 | 33.92538 | -118.51144 | 2227 ft | 198 kts | 244° |
| 2026-05-08 00:10 | 33.91841 | -118.52677 | 2385 ft | 217 kts | 242° |
| 2026-05-08 00:11 | 33.91066 | -118.54346 | 2535 ft | 238 kts | 242° |
| 2026-05-08 00:11 | 33.90227 | -118.56155 | 2767 ft | 256 kts | 242° |
| 2026-05-08 00:11 | 33.89353 | -118.58049 | 3245 ft | 261 kts | 242° |
| 2026-05-08 00:11 | 33.88464 | -118.59978 | 3821 ft | 263 kts | 242° |
| 2026-05-08 00:12 | 33.87565 | -118.61917 | 4364 ft | 267 kts | 242° |
| 2026-05-08 00:12 | 33.86655 | -118.63880 | 4922 ft | 270 kts | 242° |
| 2026-05-08 00:12 | 33.85731 | -118.65860 | 5466 ft | 273 kts | 239° |
| 2026-05-08 00:12 | 33.84457 | -118.67562 | 5932 ft | 279 kts | 216° |
| 2026-05-08 00:13 | 33.82686 | -118.68510 | 6002 ft | 282 kts | 191° |
| 2026-05-08 00:13 | 33.80739 | -118.68444 | 6003 ft | 283 kts | 165° |
| 2026-05-08 00:13 | 33.79008 | -118.67359 | 6000 ft | 283 kts | 138° |
| 2026-05-08 00:13 | 33.77850 | -118.65480 | 6005 ft | 283 kts | 112° |
| 2026-05-08 00:14 | 33.77493 | -118.63171 | 6015 ft | 283 kts | 86° |
| 2026-05-08 00:14 | 33.78013 | -118.60926 | 6079 ft | 280 kts | 59° |
| 2026-05-08 00:14 | 33.79137 | -118.59014 | 6505 ft | 280 kts | 49° |
| 2026-05-08 00:14 | 33.80531 | -118.57383 | 7025 ft | 280 kts | 41° |
| 2026-05-08 00:15 | 33.82010 | -118.55866 | 7516 ft | 280 kts | 41° |
| 2026-05-08 00:15 | 33.83479 | -118.54303 | 8009 ft | 282 kts | 42° |
| 2026-05-08 00:15 | 33.84936 | -118.52721 | 8488 ft | 283 kts | 42° |
| 2026-05-08 00:15 | 33.86398 | -118.51110 | 8919 ft | 286 kts | 43° |
| 2026-05-08 00:16 | 33.87370 | -118.50027 | 9187 ft | 289 kts | 43° |
| 2026-05-08 00:16 | 33.89341 | -118.47825 | 9724 ft | 293 kts | 43° |
| 2026-05-08 00:16 | 33.90350 | -118.46697 | 10000 ft | 296 kts | 43° |
| 2026-05-08 00:16 | 33.91864 | -118.44999 | 10407 ft | 299 kts | 43° |
| 2026-05-08 00:17 | 33.93289 | -118.43150 | 10814 ft | 303 kts | 51° |
| 2026-05-08 00:17 | 33.94503 | -118.41051 | 11150 ft | 309 kts | 56° |
| 2026-05-08 00:17 | 33.95726 | -118.38858 | 11282 ft | 321 kts | 55° |
| 2026-05-08 00:17 | 33.97014 | -118.36594 | 11409 ft | 333 kts | 54° |
| 2026-05-08 00:18 | 33.98361 | -118.34233 | 11594 ft | 343 kts | 54° |
| 2026-05-08 00:18 | 33.99706 | -118.31871 | 12009 ft | 345 kts | 55° |
| 2026-05-08 00:18 | 34.01062 | -118.29486 | 12512 ft | 345 kts | 55° |
| 2026-05-08 00:18 | 34.02437 | -118.27066 | 12928 ft | 348 kts | 55° |
| 2026-05-08 00:19 | 34.03790 | -118.24686 | 13389 ft | 349 kts | 55° |
| 2026-05-08 00:19 | 34.05164 | -118.22260 | 13793 ft | 351 kts | 55° |
| 2026-05-08 00:19 | 34.06549 | -118.19816 | 14272 ft | 353 kts | 55° |
| 2026-05-08 00:19 | 34.07921 | -118.17397 | 14651 ft | 355 kts | 55° |
| 2026-05-08 00:20 | 34.09319 | -118.14924 | 15063 ft | 358 kts | 55° |
| 2026-05-08 00:20 | 34.10728 | -118.12438 | 15466 ft | 360 kts | 55° |
| 2026-05-08 00:20 | 34.12162 | -118.09902 | 15889 ft | 362 kts | 55° |
| 2026-05-08 00:20 | 34.13586 | -118.07381 | 16299 ft | 364 kts | 55° |
| 2026-05-08 00:21 | 34.14997 | -118.04879 | 16688 ft | 366 kts | 55° |
| 2026-05-08 00:21 | 34.16437 | -118.02329 | 17062 ft | 369 kts | 55° |
| 2026-05-08 00:21 | 34.17884 | -117.99760 | 17443 ft | 371 kts | 55° |
| 2026-05-08 00:21 | 34.19339 | -117.97176 | 17834 ft | 371 kts | 55° |
| 2026-05-08 00:22 | 34.20795 | -117.94585 | 18222 ft | 374 kts | 55° |
| 2026-05-08 00:22 | 34.22267 | -117.91973 | 18535 ft | 377 kts | 55° |
| 2026-05-08 00:22 | 34.23744 | -117.89347 | 18923 ft | 378 kts | 55° |
| 2026-05-08 00:22 | 34.25222 | -117.86709 | 19271 ft | 380 kts | 55° |
| 2026-05-08 00:23 | 34.26710 | -117.84055 | 19591 ft | 382 kts | 55° |
| 2026-05-08 00:23 | 34.28205 | -117.81388 | 19915 ft | 384 kts | 55° |
| 2026-05-08 00:23 | 34.29706 | -117.78704 | 20262 ft | 385 kts | 56° |
| 2026-05-08 00:23 | 34.31208 | -117.76017 | 20597 ft | 387 kts | 55° |
| 2026-05-08 00:24 | 34.32714 | -117.73322 | 20972 ft | 387 kts | 55° |
| 2026-05-08 00:24 | 34.34226 | -117.70615 | 21295 ft | 388 kts | 55° |
| 2026-05-08 00:24 | 34.35746 | -117.67906 | 21598 ft | 390 kts | 54° |
| 2026-05-08 00:24 | 34.37324 | -117.65232 | 21888 ft | 392 kts | 53° |
| 2026-05-08 00:25 | 34.38938 | -117.62567 | 22207 ft | 393 kts | 53° |
| 2026-05-08 00:25 | 34.40558 | -117.59894 | 22506 ft | 395 kts | 53° |
| 2026-05-08 00:25 | 34.42178 | -117.57205 | 22784 ft | 396 kts | 53° |
| 2026-05-08 00:25 | 34.43799 | -117.54495 | 23064 ft | 398 kts | 53° |
| 2026-05-08 00:26 | 34.45428 | -117.51764 | 23340 ft | 400 kts | 53° |
| 2026-05-08 00:26 | 34.47058 | -117.49029 | 23645 ft | 400 kts | 53° |
| 2026-05-08 00:26 | 34.48687 | -117.46292 | 23942 ft | 401 kts | 53° |
| 2026-05-08 00:26 | 34.50326 | -117.43534 | 24189 ft | 403 kts | 53° |
| 2026-05-08 00:27 | 34.51973 | -117.40759 | 24430 ft | 405 kts | 53° |
| 2026-05-08 00:27 | 34.53605 | -117.38009 | 24685 ft | 407 kts | 53° |
| 2026-05-08 00:27 | 34.55282 | -117.35180 | 24962 ft | 408 kts | 53° |
| 2026-05-08 00:27 | 34.56941 | -117.32378 | 25232 ft | 409 kts | 53° |
| 2026-05-08 00:28 | 34.58581 | -117.29603 | 25470 ft | 411 kts | 53° |
| 2026-05-08 00:28 | 34.60248 | -117.26783 | 25748 ft | 412 kts | 53° |
| 2026-05-08 00:28 | 34.61926 | -117.23943 | 25976 ft | 414 kts | 53° |
| 2026-05-08 00:28 | 34.63607 | -117.21095 | 26226 ft | 416 kts | 53° |
| 2026-05-08 00:29 | 34.65293 | -117.18236 | 26489 ft | 417 kts | 53° |
| 2026-05-08 00:29 | 34.66986 | -117.15364 | 26728 ft | 419 kts | 53° |
| 2026-05-08 00:29 | 34.68688 | -117.12478 | 27023 ft | 421 kts | 53° |
| 2026-05-08 00:29 | 34.70406 | -117.09583 | 27416 ft | 422 kts | 53° |
| 2026-05-08 00:30 | 34.72128 | -117.06679 | 27783 ft | 424 kts | 53° |
| 2026-05-08 00:30 | 34.73855 | -117.03757 | 28140 ft | 426 kts | 53° |
| 2026-05-08 00:30 | 34.75586 | -117.00817 | 28488 ft | 429 kts | 53° |
| 2026-05-08 00:30 | 34.77324 | -116.97858 | 28835 ft | 431 kts | 53° |
| 2026-05-08 00:31 | 34.79073 | -116.94875 | 29275 ft | 430 kts | 53° |
| 2026-05-08 00:31 | 34.80777 | -116.91961 | 30168 ft | 418 kts | 53° |
| 2026-05-08 00:31 | 34.82477 | -116.89059 | 30412 ft | 424 kts | 53° |
| 2026-05-08 00:31 | 34.84191 | -116.86133 | 30502 ft | 433 kts | 53° |
| 2026-05-08 00:32 | 34.87746 | -116.80056 | 30863 ft | 445 kts | 53° |
| 2026-05-08 00:32 | 34.89546 | -116.76972 | 31215 ft | 447 kts | 53° |
| 2026-05-08 00:32 | 34.91351 | -116.73882 | 31543 ft | 449 kts | 51° |
| 2026-05-08 00:33 | 34.93351 | -116.70955 | 31851 ft | 450 kts | 45° |
| 2026-05-08 00:33 | 34.95499 | -116.68168 | 32158 ft | 452 kts | 46° |
| 2026-05-08 00:33 | 34.97651 | -116.65346 | 32424 ft | 455 kts | 46° |
| 2026-05-08 00:33 | 34.99804 | -116.62510 | 32740 ft | 457 kts | 46° |
| 2026-05-08 00:34 | 35.01962 | -116.59662 | 33078 ft | 458 kts | 46° |
| 2026-05-08 00:34 | 35.04133 | -116.56798 | 33327 ft | 461 kts | 46° |
| 2026-05-08 00:34 | 35.06323 | -116.53907 | 33616 ft | 463 kts | 46° |
| 2026-05-08 00:34 | 35.08518 | -116.51009 | 33902 ft | 465 kts | 46° |
| 2026-05-08 00:35 | 35.10715 | -116.48104 | 34181 ft | 467 kts | 46° |
| 2026-05-08 00:35 | 35.12927 | -116.45174 | 34469 ft | 470 kts | 46° |
| 2026-05-08 00:35 | 35.15146 | -116.42235 | 34762 ft | 471 kts | 46° |
| 2026-05-08 00:35 | 35.17375 | -116.39278 | 34951 ft | 476 kts | 46° |
| 2026-05-08 00:36 | 35.21817 | -116.33384 | 34945 ft | 467 kts | 46° |
| 2026-05-08 00:36 | 35.26242 | -116.27501 | 34940 ft | 470 kts | 46° |
| 2026-05-08 00:37 | 35.30637 | -116.21647 | 34945 ft | 470 kts | 46° |
| 2026-05-08 00:38 | 35.37271 | -116.12790 | 34930 ft | 469 kts | 46° |
| 2026-05-08 00:38 | 35.41680 | -116.06894 | 34929 ft | 468 kts | 46° |
| 2026-05-08 00:39 | 35.46100 | -116.00971 | 34913 ft | 468 kts | 46° |
| 2026-05-08 00:39 | 35.50470 | -115.95106 | 34929 ft | 467 kts | 46° |
| 2026-05-08 00:40 | 35.54882 | -115.89174 | 34924 ft | 467 kts | 46° |
| 2026-05-08 00:40 | 35.59257 | -115.83281 | 34921 ft | 466 kts | 46° |
| 2026-05-08 00:41 | 35.63624 | -115.77389 | 34926 ft | 466 kts | 46° |
| 2026-05-08 00:41 | 35.67948 | -115.71462 | 34922 ft | 466 kts | 46° |
| 2026-05-08 00:42 | 35.72258 | -115.65518 | 34922 ft | 466 kts | 46° |
| 2026-05-08 00:42 | 35.76584 | -115.59557 | 34924 ft | 466 kts | 46° |
| 2026-05-08 00:43 | 35.80903 | -115.53596 | 34927 ft | 467 kts | 46° |
| 2026-05-08 00:43 | 35.85217 | -115.47630 | 34949 ft | 467 kts | 47° |
| 2026-05-08 00:44 | 35.89534 | -115.41645 | 34949 ft | 467 kts | 46° |